Inicio METAR Ruta Wind Satelite

Informe Meteorológico

Fecha: 2020/09/22 21:11:47 Local
2020.09.23 02:11 UTC


Estado: VIGENTE
Operación:VFR
Leticia / Vasquez Cobo, Colombia (SKLT) 04-10S 069-57W 84M
2020.09.23 0200 UTC
Wind: Calm:0
Visibility: greater than 7 mile(s):0
Temperature: 77 F (25 C)
Dew Point: 77 F (25 C)
Relative Humidity: 100%
Pressure (altimeter): 29.89 in. Hg (1012 hPa)
ob: SKLT 230200Z 00000KT CAVOK 25/25 A2989
cycle: 2

SKLT 230100Z 00000KT CAVOK 25/25 A2987
SKLT 230000Z VRB02KT 9999 FEW020 26/24 A2985
SKLT 222300Z 17003KT 9999 FEW020 BKN200 28/24 A2982
SKLT 222200Z VRB02KT 9999 SCT020 BKN200 29/25 A2978
SKLT 222100Z 22005KT 070V220 9999 SCT020 31/25 A2976

2020/09/22 18:35
TAF SKLT 221630Z 2218/2318 25007KT 9999 SCT010 SCT080 PROB40
TEMPO 2222/2224 5000 TSRA SCT010CB OVC070
BECMG 2301/2303 00000KT TX33/2218Z TN23/2310Z